Strona główna
METAR-TAF:

METAR-TAF

Lotnisko :

Port lotniczy Doncaster/Sheffield

Doncaster, Anglia

Szerokość geograficzna: 53-29N, Długość geograficzna: 001-00W, wysokość: 17 m

Aktualna obserwacja pogody

Raport powstał 27 minut temu, godzina 10:20 UTC
Wiatr 4 kt od południowo-południowy zachód, zmienny między wschodnio-południowy wschód i zachód
Temperatura 21°C
Wilgotność 49%
Ciśnienie 1026 hPa
Widzialność 10 km lub więcej
Brak chmur poniżej 1500 m i brak chmur cumulonimbus

METAR: EGCN 241020Z 21004KT 110V260 CAVOK 21/10 Q1026

czas: 11:47 (10:47 UTC)

Prognoza

Raport powstał 5 godziny i 45 minut temu, godzina 05:02 UTC
Prognoza ważna od 24 godzina 06 UTC do 25 godzina 06 UTC
Wiatr 5 kt od północny zachód
Widzialność 10 km lub więcej
Brak chmur poniżej 1500 m i brak chmur cumulonimbus

TAF: EGCN 240502Z 2406/2506 32005KT CAVOK

Obserwacja i prognoza pogody dla ponad 4000 lotnisk (raport METAR i TAF).

Dostępne stacje oznaczono żółtymi i czerwonymi punktami na mapie.

Najedź kursorem aby zobaczyć nazwę stacji.

Kliknij aby zobaczyć obserwacje i prognozy pogody.

Aby zmienić mapę: kliknij na zielony przycisk z czarnym krzyżykiem, aby powiększyć; na zielony przycisk z myślnikiem, aby pomniejszyć; na zielone strzałki, aby przejść do map sąsiednich.


METAR-TAF: